Terminal Aerodrome Forecast
Issued by NWS

Current Version | Previous Version | Text Only | Print | Product List | Glossary On
Versions: 1 2 3 4 5 6 7 8 9 10 11 12 13 14 15 16 17 18 19 20 21 22 23 24 25
000
FTUS41 KBUF 311229 AAA
TAFIAG
TAF AMD
KIAG 311229Z 3112/0112 30004KT P6SM FEW060 SCT090
     FM311400 31008KT P6SM FEW250
     FM010200 36005KT P6SM FEW250
     FM010500 05007KT P6SM FEW250=

USA.gov is the U.S. government's official web portal to all federal, state and local government web resources and services.